sensor_id;sensor_type;location;lat;lon;timestamp;pressure;altitude;pressure_sealevel;temperature;humidity
38630;BME280;24384;51.988;4.644;2022-07-06T00:01:18;102851.72;;;16.55;100.00
38630;BME280;24384;51.988;4.644;2022-07-06T00:03:44;102854.66;;;16.50;100.00
38630;BME280;24384;51.988;4.644;2022-07-06T00:06:09;102853.50;;;16.51;100.00
38630;BME280;24384;51.988;4.644;2022-07-06T00:08:35;102845.41;;;16.58;100.00
38630;BME280;24384;51.988;4.644;2022-07-06T00:11:01;102851.91;;;16.45;100.00
38630;BME280;24384;51.988;4.644;2022-07-06T00:13:27;102856.88;;;16.40;100.00
38630;BME280;24384;51.988;4.644;2022-07-06T00:15:52;102843.50;;;16.40;100.00
38630;BME280;24384;51.988;4.644;2022-07-06T00:18:18;102853.22;;;16.07;100.00
38630;BME280;24384;51.988;4.644;2022-07-06T00:20:43;102849.47;;;16.25;100.00
38630;BME280;24384;51.988;4.644;2022-07-06T00:23:09;102847.53;;;16.21;100.00
38630;BME280;24384;51.988;4.644;2022-07-06T00:25:34;102846.41;;;16.35;100.00
38630;BME280;24384;51.988;4.644;2022-07-06T00:28:00;102844.97;;;16.51;100.00
38630;BME280;24384;51.988;4.644;2022-07-06T00:30:25;102839.47;;;16.41;100.00
38630;BME280;24384;51.988;4.644;2022-07-06T00:32:51;102855.88;;;16.17;100.00
38630;BME280;24384;51.988;4.644;2022-07-06T00:35:16;102839.25;;;16.24;100.00
38630;BME280;24384;51.988;4.644;2022-07-06T00:37:41;102844.75;;;16.34;100.00
38630;BME280;24384;51.988;4.644;2022-07-06T00:40:07;102842.94;;;16.38;100.00
38630;BME280;24384;51.988;4.644;2022-07-06T00:42:44;102846.50;;;16.17;100.00
38630;BME280;24384;51.988;4.644;2022-07-06T00:45:11;102848.59;;;16.11;100.00
38630;BME280;24384;51.988;4.644;2022-07-06T00:47:38;102857.66;;;16.13;100.00
38630;BME280;24384;51.988;4.644;2022-07-06T00:50:04;102850.09;;;16.22;100.00
38630;BME280;24384;51.988;4.644;2022-07-06T00:52:43;102849.38;;;15.98;100.00
38630;BME280;24384;51.988;4.644;2022-07-06T00:55:10;102861.63;;;16.12;100.00
38630;BME280;24384;51.988;4.644;2022-07-06T00:57:36;102857.78;;;15.89;100.00
38630;BME280;24384;51.988;4.644;2022-07-06T01:00:08;102865.66;;;15.79;100.00
38630;BME280;24384;51.988;4.644;2022-07-06T01:02:34;102864.50;;;15.80;100.00
38630;BME280;24384;51.988;4.644;2022-07-06T01:05:00;102865.50;;;15.70;100.00
38630;BME280;24384;51.988;4.644;2022-07-06T01:07:26;102876.72;;;15.62;100.00
38630;BME280;24384;51.988;4.644;2022-07-06T01:09:53;102871.56;;;15.45;100.00
38630;BME280;24384;51.988;4.644;2022-07-06T01:12:18;102864.19;;;15.81;100.00
38630;BME280;24384;51.988;4.644;2022-07-06T01:14:46;102864.13;;;15.68;100.00
38630;BME280;24384;51.988;4.644;2022-07-06T01:17:13;102868.00;;;15.90;100.00
38630;BME280;24384;51.988;4.644;2022-07-06T01:19:39;102861.06;;;15.83;100.00
38630;BME280;24384;51.988;4.644;2022-07-06T01:22:04;102862.19;;;15.82;100.00
38630;BME280;24384;51.988;4.644;2022-07-06T01:24:30;102857.53;;;15.72;100.00
38630;BME280;24384;51.988;4.644;2022-07-06T01:26:55;102873.59;;;15.63;100.00
38630;BME280;24384;51.988;4.644;2022-07-06T01:29:21;102862.53;;;15.62;100.00
38630;BME280;24384;51.988;4.644;2022-07-06T01:31:48;102871.75;;;15.72;100.00
38630;BME280;24384;51.988;4.644;2022-07-06T01:34:14;102859.63;;;15.99;100.00
38630;BME280;24384;51.988;4.644;2022-07-06T01:36:40;102858.31;;;15.78;100.00
38630;BME280;24384;51.988;4.644;2022-07-06T01:39:07;102868.59;;;15.74;100.00
38630;BME280;24384;51.988;4.644;2022-07-06T01:41:33;102867.78;;;15.55;100.00
38630;BME280;24384;51.988;4.644;2022-07-06T01:43:58;102863.34;;;15.81;100.00
38630;BME280;24384;51.988;4.644;2022-07-06T01:46:24;102855.09;;;15.66;100.00
38630;BME280;24384;51.988;4.644;2022-07-06T01:48:49;102855.84;;;15.71;100.00
38630;BME280;24384;51.988;4.644;2022-07-06T01:51:14;102859.97;;;15.79;100.00
38630;BME280;24384;51.988;4.644;2022-07-06T01:53:40;102862.25;;;15.63;100.00
38630;BME280;24384;51.988;4.644;2022-07-06T01:56:06;102866.06;;;15.72;100.00
38630;BME280;24384;51.988;4.644;2022-07-06T01:58:31;102866.19;;;15.81;100.00
38630;BME280;24384;51.988;4.644;2022-07-06T02:00:57;102870.47;;;15.78;100.00
38630;BME280;24384;51.988;4.644;2022-07-06T02:03:22;102865.03;;;15.82;100.00
38630;BME280;24384;51.988;4.644;2022-07-06T02:05:48;102852.88;;;15.95;100.00
38630;BME280;24384;51.988;4.644;2022-07-06T02:08:13;102859.00;;;16.02;100.00
38630;BME280;24384;51.988;4.644;2022-07-06T02:10:39;102855.59;;;15.86;100.00
38630;BME280;24384;51.988;4.644;2022-07-06T02:13:07;102842.53;;;15.85;100.00
38630;BME280;24384;51.988;4.644;2022-07-06T02:15:32;102847.19;;;15.63;100.00
38630;BME280;24384;51.988;4.644;2022-07-06T02:17:58;102853.84;;;15.72;100.00
38630;BME280;24384;51.988;4.644;2022-07-06T02:20:23;102858.97;;;15.70;100.00
38630;BME280;24384;51.988;4.644;2022-07-06T02:22:49;102856.09;;;15.56;100.00
38630;BME280;24384;51.988;4.644;2022-07-06T02:25:14;102868.13;;;15.29;100.00
38630;BME280;24384;51.988;4.644;2022-07-06T02:27:39;102874.63;;;15.30;100.00
38630;BME280;24384;51.988;4.644;2022-07-06T02:30:05;102869.00;;;15.48;100.00
38630;BME280;24384;51.988;4.644;2022-07-06T02:32:31;102877.00;;;15.41;100.00
38630;BME280;24384;51.988;4.644;2022-07-06T02:34:56;102876.28;;;15.55;100.00
38630;BME280;24384;51.988;4.644;2022-07-06T02:37:22;102868.50;;;15.79;100.00
38630;BME280;24384;51.988;4.644;2022-07-06T02:39:48;102856.84;;;15.62;100.00
38630;BME280;24384;51.988;4.644;2022-07-06T02:42:13;102866.06;;;15.53;100.00
38630;BME280;24384;51.988;4.644;2022-07-06T02:44:39;102859.53;;;15.34;100.00
38630;BME280;24384;51.988;4.644;2022-07-06T02:47:04;102865.34;;;15.24;100.00
38630;BME280;24384;51.988;4.644;2022-07-06T02:49:30;102869.44;;;15.37;100.00
38630;BME280;24384;51.988;4.644;2022-07-06T02:51:55;102867.53;;;15.32;100.00
38630;BME280;24384;51.988;4.644;2022-07-06T02:54:20;102869.13;;;15.20;100.00
38630;BME280;24384;51.988;4.644;2022-07-06T02:56:46;102873.19;;;15.14;100.00
38630;BME280;24384;51.988;4.644;2022-07-06T02:59:16;102872.72;;;15.07;100.00
38630;BME280;24384;51.988;4.644;2022-07-06T03:01:42;102881.78;;;14.85;100.00
38630;BME280;24384;51.988;4.644;2022-07-06T03:04:07;102890.31;;;14.85;100.00
38630;BME280;24384;51.988;4.644;2022-07-06T03:06:32;102894.41;;;14.74;100.00
38630;BME280;24384;51.988;4.644;2022-07-06T03:08:58;102887.91;;;14.73;100.00
38630;BME280;24384;51.988;4.644;2022-07-06T03:11:23;102897.78;;;14.76;100.00
38630;BME280;24384;51.988;4.644;2022-07-06T03:13:49;102896.38;;;14.78;100.00
38630;BME280;24384;51.988;4.644;2022-07-06T03:16:14;102894.75;;;14.91;100.00
38630;BME280;24384;51.988;4.644;2022-07-06T03:18:39;102891.16;;;14.85;100.00
38630;BME280;24384;51.988;4.644;2022-07-06T03:21:05;102897.06;;;14.89;100.00
38630;BME280;24384;51.988;4.644;2022-07-06T03:23:30;102895.25;;;14.98;100.00
38630;BME280;24384;51.988;4.644;2022-07-06T03:25:56;102880.63;;;15.10;100.00
38630;BME280;24384;51.988;4.644;2022-07-06T03:28:21;102878.34;;;14.88;100.00
38630;BME280;24384;51.988;4.644;2022-07-06T03:30:47;102879.06;;;14.98;100.00
38630;BME280;24384;51.988;4.644;2022-07-06T03:33:12;102878.09;;;15.08;100.00
38630;BME280;24384;51.988;4.644;2022-07-06T03:35:38;102880.56;;;15.33;100.00
38630;BME280;24384;51.988;4.644;2022-07-06T03:38:03;102883.84;;;15.22;100.00
38630;BME280;24384;51.988;4.644;2022-07-06T03:40:28;102878.09;;;15.08;100.00
38630;BME280;24384;51.988;4.644;2022-07-06T03:42:54;102872.44;;;15.45;100.00
38630;BME280;24384;51.988;4.644;2022-07-06T03:45:19;102866.03;;;15.16;100.00
38630;BME280;24384;51.988;4.644;2022-07-06T03:47:44;102865.53;;;15.51;100.00
38630;BME280;24384;51.988;4.644;2022-07-06T03:50:10;102854.91;;;15.76;100.00
38630;BME280;24384;51.988;4.644;2022-07-06T03:52:35;102852.03;;;15.94;100.00
38630;BME280;24384;51.988;4.644;2022-07-06T03:55:14;102843.94;;;16.01;100.00
38630;BME280;24384;51.988;4.644;2022-07-06T03:57:39;102846.78;;;16.01;100.00
38630;BME280;24384;51.988;4.644;2022-07-06T04:00:06;102843.91;;;16.34;100.00
38630;BME280;24384;51.988;4.644;2022-07-06T04:02:32;102845.78;;;16.25;100.00
38630;BME280;24384;51.988;4.644;2022-07-06T04:04:58;102847.53;;;16.21;100.00
38630;BME280;24384;51.988;4.644;2022-07-06T04:07:23;102849.38;;;16.44;100.00
38630;BME280;24384;51.988;4.644;2022-07-06T04:09:48;102845.53;;;16.53;100.00
38630;BME280;24384;51.988;4.644;2022-07-06T04:12:14;102839.56;;;16.50;100.00
38630;BME280;24384;51.988;4.644;2022-07-06T04:14:39;102838.44;;;16.78;100.00
38630;BME280;24384;51.988;4.644;2022-07-06T04:17:05;102843.91;;;16.75;100.00
38630;BME280;24384;51.988;4.644;2022-07-06T04:19:48;102840.63;;;17.08;100.00
38630;BME280;24384;51.988;4.644;2022-07-06T04:22:14;102844.22;;;16.87;100.00
38630;BME280;24384;51.988;4.644;2022-07-06T04:24:39;102843.63;;;16.76;100.00
38630;BME280;24384;51.988;4.644;2022-07-06T04:27:05;102839.94;;;16.62;100.00
38630;BME280;24384;51.988;4.644;2022-07-06T04:29:30;102834.03;;;16.86;100.00
38630;BME280;24384;51.988;4.644;2022-07-06T04:31:55;102829.97;;;17.14;100.00
38630;BME280;24384;51.988;4.644;2022-07-06T04:34:21;102836.06;;;17.21;100.00
38630;BME280;24384;51.988;4.644;2022-07-06T04:36:46;102836.38;;;17.06;100.00
38630;BME280;24384;51.988;4.644;2022-07-06T04:39:11;102832.91;;;17.09;100.00
38630;BME280;24384;51.988;4.644;2022-07-06T04:41:37;102835.66;;;17.00;100.00
38630;BME280;24384;51.988;4.644;2022-07-06T04:44:03;102838.50;;;17.14;100.00
38630;BME280;24384;51.988;4.644;2022-07-06T04:46:28;102841.81;;;16.80;100.00
38630;BME280;24384;51.988;4.644;2022-07-06T04:48:55;102833.97;;;17.13;100.00
38630;BME280;24384;51.988;4.644;2022-07-06T04:51:20;102835.00;;;17.17;100.00
38630;BME280;24384;51.988;4.644;2022-07-06T04:53:46;102838.13;;;17.29;100.00
38630;BME280;24384;51.988;4.644;2022-07-06T04:56:12;102851.31;;;17.39;100.00
38630;BME280;24384;51.988;4.644;2022-07-06T04:58:37;102848.97;;;17.41;100.00
38630;BME280;24384;51.988;4.644;2022-07-06T05:01:03;102849.59;;;17.38;100.00
38630;BME280;24384;51.988;4.644;2022-07-06T05:03:28;102838.97;;;17.65;100.00
38630;BME280;24384;51.988;4.644;2022-07-06T05:05:53;102839.31;;;17.64;100.00
38630;BME280;24384;51.988;4.644;2022-07-06T05:08:19;102840.41;;;17.41;100.00
38630;BME280;24384;51.988;4.644;2022-07-06T05:10:44;102844.19;;;17.50;100.00
38630;BME280;24384;51.988;4.644;2022-07-06T05:13:10;102846.59;;;17.20;100.00
38630;BME280;24384;51.988;4.644;2022-07-06T05:15:35;102848.19;;;17.13;100.00
38630;BME280;24384;51.988;4.644;2022-07-06T05:18:00;102861.38;;;17.22;100.00
38630;BME280;24384;51.988;4.644;2022-07-06T05:20:26;102856.63;;;17.18;100.00
38630;BME280;24384;51.988;4.644;2022-07-06T05:22:51;102864.22;;;17.22;100.00
38630;BME280;24384;51.988;4.644;2022-07-06T05:25:17;102858.03;;;17.07;100.00
38630;BME280;24384;51.988;4.644;2022-07-06T05:27:42;102871.59;;;17.23;100.00
38630;BME280;24384;51.988;4.644;2022-07-06T05:30:08;102866.78;;;17.10;100.00
38630;BME280;24384;51.988;4.644;2022-07-06T05:32:33;102864.75;;;17.24;100.00
38630;BME280;24384;51.988;4.644;2022-07-06T05:34:59;102858.16;;;17.73;100.00
38630;BME280;24384;51.988;4.644;2022-07-06T05:37:24;102856.78;;;17.71;100.00
38630;BME280;24384;51.988;4.644;2022-07-06T05:39:49;102860.25;;;17.82;100.00
38630;BME280;24384;51.988;4.644;2022-07-06T05:42:16;102851.22;;;18.10;100.00
38630;BME280;24384;51.988;4.644;2022-07-06T05:44:41;102845.00;;;18.48;100.00
38630;BME280;24384;51.988;4.644;2022-07-06T05:47:07;102846.41;;;18.50;100.00
38630;BME280;24384;51.988;4.644;2022-07-06T05:49:50;102849.50;;;18.40;100.00
38630;BME280;24384;51.988;4.644;2022-07-06T05:52:34;102844.34;;;18.81;100.00
38630;BME280;24384;51.988;4.644;2022-07-06T05:55:00;102845.56;;;18.98;100.00
38630;BME280;24384;51.988;4.644;2022-07-06T05:57:25;102838.69;;;19.24;100.00
38630;BME280;24384;51.988;4.644;2022-07-06T05:59:51;102835.31;;;18.97;100.00
38630;BME280;24384;51.988;4.644;2022-07-06T06:02:17;102838.38;;;19.17;100.00
38630;BME280;24384;51.988;4.644;2022-07-06T06:04:42;102842.59;;;19.37;100.00
38630;BME280;24384;51.988;4.644;2022-07-06T06:07:08;102830.84;;;19.47;100.00
38630;BME280;24384;51.988;4.644;2022-07-06T06:09:33;102832.00;;;19.37;100.00
38630;BME280;24384;51.988;4.644;2022-07-06T06:11:59;102842.59;;;19.37;100.00
38630;BME280;24384;51.988;4.644;2022-07-06T06:14:24;102843.97;;;19.48;100.00
38630;BME280;24384;51.988;4.644;2022-07-06T06:16:49;102834.88;;;19.89;100.00
38630;BME280;24384;51.988;4.644;2022-07-06T06:19:15;102828.81;;;20.54;100.00
38630;BME280;24384;51.988;4.644;2022-07-06T06:21:40;102837.00;;;20.64;100.00
38630;BME280;24384;51.988;4.644;2022-07-06T06:24:06;102835.75;;;20.44;100.00
38630;BME280;24384;51.988;4.644;2022-07-06T06:26:32;102824.66;;;20.43;100.00
38630;BME280;24384;51.988;4.644;2022-07-06T06:28:58;102829.50;;;20.51;100.00
38630;BME280;24384;51.988;4.644;2022-07-06T06:31:23;102828.00;;;20.83;100.00
38630;BME280;24384;51.988;4.644;2022-07-06T06:33:48;102822.94;;;20.80;100.00
38630;BME280;24384;51.988;4.644;2022-07-06T06:36:14;102837.13;;;20.30;100.00
38630;BME280;24384;51.988;4.644;2022-07-06T06:38:39;102831.69;;;21.12;100.00
38630;BME280;24384;51.988;4.644;2022-07-06T06:41:05;102834.34;;;20.88;100.00
38630;BME280;24384;51.988;4.644;2022-07-06T06:43:31;102834.34;;;21.17;100.00
38630;BME280;24384;51.988;4.644;2022-07-06T06:45:56;102831.41;;;21.26;100.00
38630;BME280;24384;51.988;4.644;2022-07-06T06:48:21;102826.53;;;21.68;100.00
38630;BME280;24384;51.988;4.644;2022-07-06T06:50:47;102827.00;;;21.29;100.00
38630;BME280;24384;51.988;4.644;2022-07-06T06:53:12;102831.22;;;21.52;100.00
38630;BME280;24384;51.988;4.644;2022-07-06T06:55:38;102827.72;;;21.46;100.00
38630;BME280;24384;51.988;4.644;2022-07-06T06:58:03;102826.09;;;21.78;100.00
38630;BME280;24384;51.988;4.644;2022-07-06T07:00:29;102834.28;;;21.47;100.00
38630;BME280;24384;51.988;4.644;2022-07-06T07:02:54;102832.03;;;21.73;100.00
38630;BME280;24384;51.988;4.644;2022-07-06T07:05:20;102827.63;;;21.96;100.00
38630;BME280;24384;51.988;4.644;2022-07-06T07:07:45;102831.41;;;21.88;100.00
38630;BME280;24384;51.988;4.644;2022-07-06T07:10:11;102829.91;;;22.03;100.00
38630;BME280;24384;51.988;4.644;2022-07-06T07:12:43;102825.63;;;22.09;100.00
38630;BME280;24384;51.988;4.644;2022-07-06T07:15:08;102824.91;;;22.12;100.00
38630;BME280;24384;51.988;4.644;2022-07-06T07:17:34;102839.78;;;21.40;100.00
38630;BME280;24384;51.988;4.644;2022-07-06T07:19:59;102834.38;;;22.12;100.00
38630;BME280;24384;51.988;4.644;2022-07-06T07:22:25;102835.03;;;21.97;100.00
38630;BME280;24384;51.988;4.644;2022-07-06T07:24:50;102831.44;;;21.47;100.00
38630;BME280;24384;51.988;4.644;2022-07-06T07:27:16;102825.28;;;22.22;100.00
38630;BME280;24384;51.988;4.644;2022-07-06T07:29:41;102816.47;;;22.27;100.00
38630;BME280;24384;51.988;4.644;2022-07-06T07:32:06;102828.78;;;21.42;100.00
38630;BME280;24384;51.988;4.644;2022-07-06T07:34:32;102829.44;;;21.80;100.00
38630;BME280;24384;51.988;4.644;2022-07-06T07:36:57;102819.81;;;22.29;100.00
38630;BME280;24384;51.988;4.644;2022-07-06T07:39:23;102818.31;;;21.99;100.00
38630;BME280;24384;51.988;4.644;2022-07-06T07:41:48;102825.09;;;22.40;100.00
38630;BME280;24384;51.988;4.644;2022-07-06T07:44:15;102821.53;;;23.15;100.00
38630;BME280;24384;51.988;4.644;2022-07-06T07:46:41;102823.81;;;23.62;100.00
38630;BME280;24384;51.988;4.644;2022-07-06T07:49:06;102821.66;;;23.07;100.00
38630;BME280;24384;51.988;4.644;2022-07-06T07:51:32;102815.81;;;22.79;100.00
38630;BME280;24384;51.988;4.644;2022-07-06T07:53:58;102817.13;;;23.58;100.00
38630;BME280;24384;51.988;4.644;2022-07-06T07:56:23;102821.69;;;23.86;100.00
38630;BME280;24384;51.988;4.644;2022-07-06T07:58:49;102813.72;;;23.28;100.00
38630;BME280;24384;51.988;4.644;2022-07-06T08:01:14;102809.25;;;22.78;100.00
38630;BME280;24384;51.988;4.644;2022-07-06T08:03:40;102819.84;;;22.42;100.00
38630;BME280;24384;51.988;4.644;2022-07-06T08:06:05;102806.38;;;22.66;100.00
38630;BME280;24384;51.988;4.644;2022-07-06T08:08:33;102806.75;;;23.29;100.00
38630;BME280;24384;51.988;4.644;2022-07-06T08:10:58;102797.50;;;23.48;100.00
38630;BME280;24384;51.988;4.644;2022-07-06T08:13:24;102791.91;;;23.94;100.00
38630;BME280;24384;51.988;4.644;2022-07-06T08:15:49;102801.16;;;23.88;100.00
38630;BME280;24384;51.988;4.644;2022-07-06T08:18:14;102807.13;;;24.38;100.00
38630;BME280;24384;51.988;4.644;2022-07-06T08:20:40;102800.53;;;24.22;100.00
38630;BME280;24384;51.988;4.644;2022-07-06T08:23:05;102811.38;;;23.85;100.00
38630;BME280;24384;51.988;4.644;2022-07-06T08:25:31;102802.66;;;24.41;100.00
38630;BME280;24384;51.988;4.644;2022-07-06T08:27:56;102805.78;;;23.77;100.00
38630;BME280;24384;51.988;4.644;2022-07-06T08:30:22;102802.53;;;23.51;100.00
38630;BME280;24384;51.988;4.644;2022-07-06T08:32:48;102802.06;;;23.49;100.00
38630;BME280;24384;51.988;4.644;2022-07-06T08:35:13;102798.09;;;24.24;100.00
38630;BME280;24384;51.988;4.644;2022-07-06T08:37:39;102802.06;;;23.36;100.00
38630;BME280;24384;51.988;4.644;2022-07-06T08:40:05;102808.59;;;23.09;100.00
38630;BME280;24384;51.988;4.644;2022-07-06T08:42:34;102800.41;;;23.35;100.00
38630;BME280;24384;51.988;4.644;2022-07-06T08:45:02;102803.69;;;23.62;100.00
38630;BME280;24384;51.988;4.644;2022-07-06T08:47:28;102792.84;;;23.43;100.00
38630;BME280;24384;51.988;4.644;2022-07-06T08:49:55;102800.53;;;23.39;100.00
38630;BME280;24384;51.988;4.644;2022-07-06T08:52:21;102801.34;;;23.27;100.00
38630;BME280;24384;51.988;4.644;2022-07-06T08:54:47;102798.44;;;22.87;100.00
38630;BME280;24384;51.988;4.644;2022-07-06T08:57:14;102805.88;;;22.76;100.00
38630;BME280;24384;51.988;4.644;2022-07-06T08:59:39;102801.56;;;22.95;100.00
38630;BME280;24384;51.988;4.644;2022-07-06T09:02:05;102802.88;;;22.97;100.00
38630;BME280;24384;51.988;4.644;2022-07-06T09:04:35;102795.88;;;23.22;100.00
38630;BME280;24384;51.988;4.644;2022-07-06T09:07:01;102797.69;;;22.54;100.00
38630;BME280;24384;51.988;4.644;2022-07-06T09:09:28;102798.72;;;23.34;100.00
38630;BME280;24384;51.988;4.644;2022-07-06T09:11:56;102802.34;;;23.19;100.00
38630;BME280;24384;51.988;4.644;2022-07-06T09:14:21;102802.25;;;23.16;100.00
38630;BME280;24384;51.988;4.644;2022-07-06T09:16:51;102794.22;;;23.21;100.00
38630;BME280;24384;51.988;4.644;2022-07-06T09:19:18;102802.94;;;23.65;100.00
38630;BME280;24384;51.988;4.644;2022-07-06T09:21:44;102793.16;;;24.09;100.00
38630;BME280;24384;51.988;4.644;2022-07-06T09:24:11;102799.75;;;23.54;100.00
38630;BME280;24384;51.988;4.644;2022-07-06T09:26:38;102798.63;;;23.71;100.00
38630;BME280;24384;51.988;4.644;2022-07-06T09:29:04;102803.06;;;23.40;100.00
38630;BME280;24384;51.988;4.644;2022-07-06T09:31:30;102811.63;;;22.88;100.00
38630;BME280;24384;51.988;4.644;2022-07-06T09:33:57;102807.34;;;23.47;100.00
38630;BME280;24384;51.988;4.644;2022-07-06T09:39:29;102811.03;;;24.62;100.00
38630;BME280;24384;51.988;4.644;2022-07-06T09:42:00;102812.63;;;24.43;100.00
38630;BME280;24384;51.988;4.644;2022-07-06T09:44:30;102824.81;;;24.09;100.00
38630;BME280;24384;51.988;4.644;2022-07-06T09:46:58;102821.19;;;23.84;100.00
38630;BME280;24384;51.988;4.644;2022-07-06T09:49:24;102832.97;;;24.07;100.00
38630;BME280;24384;51.988;4.644;2022-07-06T09:51:52;102827.28;;;23.67;100.00
38630;BME280;24384;51.988;4.644;2022-07-06T09:54:17;102826.00;;;24.08;100.00
38630;BME280;24384;51.988;4.644;2022-07-06T09:56:45;102819.69;;;23.47;100.00
38630;BME280;24384;51.988;4.644;2022-07-06T09:59:17;102825.72;;;23.70;100.00
38630;BME280;24384;51.988;4.644;2022-07-06T10:01:43;102820.84;;;23.86;100.00
38630;BME280;24384;51.988;4.644;2022-07-06T10:04:11;102814.91;;;24.22;100.00
38630;BME280;24384;51.988;4.644;2022-07-06T10:06:39;102814.47;;;24.51;100.00
38630;BME280;24384;51.988;4.644;2022-07-06T10:09:06;102814.56;;;24.55;100.00
38630;BME280;24384;51.988;4.644;2022-07-06T10:11:36;102792.13;;;25.30;100.00
38630;BME280;24384;51.988;4.644;2022-07-06T10:14:04;102799.72;;;25.19;100.00
38630;BME280;24384;51.988;4.644;2022-07-06T10:16:31;102805.63;;;24.44;100.00
38630;BME280;24384;51.988;4.644;2022-07-06T10:18:57;102803.81;;;25.18;100.00
38630;BME280;24384;51.988;4.644;2022-07-06T10:21:24;102805.47;;;25.54;100.00
38630;BME280;24384;51.988;4.644;2022-07-06T10:23:50;102798.41;;;25.17;100.00
38630;BME280;24384;51.988;4.644;2022-07-06T10:26:21;102803.00;;;25.02;100.00
38630;BME280;24384;51.988;4.644;2022-07-06T10:28:51;102801.00;;;25.76;100.00
38630;BME280;24384;51.988;4.644;2022-07-06T10:31:18;102798.06;;;25.95;100.00
38630;BME280;24384;51.988;4.644;2022-07-06T10:33:44;102793.84;;;25.69;100.00
38630;BME280;24384;51.988;4.644;2022-07-06T10:36:11;102784.97;;;26.20;100.00
38630;BME280;24384;51.988;4.644;2022-07-06T10:38:37;102785.34;;;25.77;100.00
38630;BME280;24384;51.988;4.644;2022-07-06T10:41:07;102786.56;;;25.76;100.00
38630;BME280;24384;51.988;4.644;2022-07-06T10:43:36;102803.13;;;24.58;100.00
38630;BME280;24384;51.988;4.644;2022-07-06T10:46:06;102787.63;;;25.48;100.00
38630;BME280;24384;51.988;4.644;2022-07-06T10:48:40;102791.50;;;25.56;100.00
38630;BME280;24384;51.988;4.644;2022-07-06T10:51:06;102782.59;;;26.48;94.80
38630;BME280;24384;51.988;4.644;2022-07-06T10:53:37;102787.47;;;26.67;96.63
38630;BME280;24384;51.988;4.644;2022-07-06T10:56:05;102783.47;;;26.98;100.00
38630;BME280;24384;51.988;4.644;2022-07-06T10:58:48;102778.56;;;27.02;100.00
38630;BME280;24384;51.988;4.644;2022-07-06T11:01:16;102779.47;;;27.65;98.11
38630;BME280;24384;51.988;4.644;2022-07-06T11:03:51;102780.38;;;27.69;100.00
38630;BME280;24384;51.988;4.644;2022-07-06T11:06:35;102768.56;;;28.22;100.00
38630;BME280;24384;51.988;4.644;2022-07-06T11:09:06;102765.19;;;28.16;89.96
38630;BME280;24384;51.988;4.644;2022-07-06T11:14:07;102763.19;;;26.03;100.00
38630;BME280;24384;51.988;4.644;2022-07-06T11:17:19;102756.56;;;26.03;100.00
38630;BME280;24384;51.988;4.644;2022-07-06T11:19:23;102752.25;;;27.10;100.00
38630;BME280;24384;51.988;4.644;2022-07-06T11:21:51;102751.38;;;26.80;100.00
38630;BME280;24384;51.988;4.644;2022-07-06T11:24:30;102753.59;;;26.18;100.00
38630;BME280;24384;51.988;4.644;2022-07-06T11:26:57;102741.56;;;26.88;100.00
38630;BME280;24384;51.988;4.644;2022-07-06T11:29:24;102749.19;;;27.00;100.00
38630;BME280;24384;51.988;4.644;2022-07-06T11:31:55;102739.09;;;27.79;97.40
38630;BME280;24384;51.988;4.644;2022-07-06T11:34:25;102731.34;;;27.24;100.00
38630;BME280;24384;51.988;4.644;2022-07-06T11:36:57;102729.25;;;27.21;100.00
38630;BME280;24384;51.988;4.644;2022-07-06T11:39:26;102745.03;;;26.25;100.00
38630;BME280;24384;51.988;4.644;2022-07-06T11:41:51;102734.03;;;26.12;100.00
38630;BME280;24384;51.988;4.644;2022-07-06T11:44:17;102727.91;;;26.36;100.00
38630;BME280;24384;51.988;4.644;2022-07-06T11:46:43;102718.16;;;26.70;100.00
38630;BME280;24384;51.988;4.644;2022-07-06T11:49:08;102720.75;;;27.05;100.00
38630;BME280;24384;51.988;4.644;2022-07-06T11:51:39;102722.03;;;26.10;100.00
38630;BME280;24384;51.988;4.644;2022-07-06T11:54:15;102726.69;;;26.14;100.00
38630;BME280;24384;51.988;4.644;2022-07-06T11:56:58;102725.38;;;25.89;100.00
38630;BME280;24384;51.988;4.644;2022-07-06T11:59:36;102729.75;;;25.80;100.00
38630;BME280;24384;51.988;4.644;2022-07-06T12:04:31;102729.34;;;26.04;100.00
38630;BME280;24384;51.988;4.644;2022-07-06T12:07:01;102732.53;;;26.18;100.00
38630;BME280;24384;51.988;4.644;2022-07-06T12:09:35;102725.94;;;26.66;100.00
38630;BME280;24384;51.988;4.644;2022-07-06T12:12:02;102734.88;;;25.90;100.00
38630;BME280;24384;51.988;4.644;2022-07-06T12:14:29;102738.28;;;25.53;100.00
38630;BME280;24384;51.988;4.644;2022-07-06T12:16:55;102736.56;;;25.33;100.00
38630;BME280;24384;51.988;4.644;2022-07-06T12:19:23;102729.88;;;25.29;100.00
38630;BME280;24384;51.988;4.644;2022-07-06T12:21:50;102724.28;;;25.36;100.00
38630;BME280;24384;51.988;4.644;2022-07-06T12:24:24;102728.31;;;25.93;100.00
38630;BME280;24384;51.988;4.644;2022-07-06T12:26:51;102730.09;;;26.20;100.00
38630;BME280;24384;51.988;4.644;2022-07-06T12:29:17;102729.81;;;25.64;100.00
38630;BME280;24384;51.988;4.644;2022-07-06T12:34:15;102727.38;;;25.08;100.00
38630;BME280;24384;51.988;4.644;2022-07-06T12:39:14;102722.59;;;25.54;100.00
38630;BME280;24384;51.988;4.644;2022-07-06T12:41:50;102713.19;;;25.77;100.00
38630;BME280;24384;51.988;4.644;2022-07-06T12:44:23;102712.56;;;25.29;100.00
38630;BME280;24384;51.988;4.644;2022-07-06T12:47:09;102718.78;;;25.12;100.00
38630;BME280;24384;51.988;4.644;2022-07-06T12:49:36;102708.47;;;25.68;100.00
38630;BME280;24384;51.988;4.644;2022-07-06T12:52:08;102704.81;;;24.95;100.00